Aérodrome :
LOGIN :

S'inscrire | Disclaimer

   EN    FR    IT 

 










Légende :    VFR   VFR Marginal   IFR   IFR Intensif   IFR Très Intensif
Visi : 
Plafond : 
>= 8 km
>= 3000ft
5 à 8 km
1000 à 3000 ft
1500m à 5 km
500 à 1000 ft
800 à 1500m
200 à 500 ft
< 800m
< 200 ft
Symboles :   Orages  Brouillard  Fortes neiges  Fortes précipitations  Vent > 20 kt
SIGMETs :   Divers  Orages  Givrage  Turbulence  Onde Orograph.  Cendres Volcan.







- Altitude de l'aérodrome : 273 ft


EGXT - RAF Wittering Stamford

DERNIER METAR :
  • 210950Z AUTO 20007KT 3600 -RASN OVC050/// 00/00 Q1013

METARs EXPIRÉS :
  • 210850Z AUTO 22005KT 3000 SG OVC050/// 00/00 Q1014
  • 210750Z AUTO 00000KT 1800 BR OVC060/// M00/M00 Q1013

Prévision TAF périmée.
Pas de NOTAMs connus pour ce terrain.
1 SIGMET publié pour la FIR London (EGTT) :
 
Givrage fort
EGTT SIGMET 03 VALID 210715/211115 EGRR
EGTT LONDON FIR SEV ICE FCST WI N5220 W00530 - N5500 W00530 - N5500 W00303 - N5304 W00042 - N5004 W00223 - N5204 W00600 - N5220 W00530 FL020/140 MOV ESE 15KT NC=



MET'MAP, la Météo Aéronautique d'un coup d'oeil ! - Copyright ORBIFLY Décembre 2007 - Disclaimer

ORBIFLY MET'MAP TEAM :

Programmation & Développement : Alexandra Zaïnal
Conception & Développement : Baudouin d'Aumeries
Co-Programmation & Développement : Marc-Olivier Méhu
Soutien technique & logistique : Manuel Goepfert

Contact : metmap@orbifly.com




SOURCES & CREDITS :

   NOAA